Time;durP1;ratioP1;P1;durP2;ratioP2;P2;SDS_P1;SDS_P2;PMS_P1;PMS_P2;Temp;Humidity;BMP_temperature;BMP_pressure;BME280_temperature;BME280_humidity;BME280_pressure;Samples;Min_cycle;Max_cycle;Signal;HPM_P1;HPM_P2
2023/02/10 00:00:44;;;;;;;27.38;10.38;;;;;;;;;;4978480;28;20053;-75
2023/02/10 00:03:12;;;;;;;22.60;9.43;;;;;;;;;;4986036;28;20072;-80
2023/02/10 00:05:39;;;;;;;23.00;9.90;;;;;;;;;;4959098;28;20141;-70
2023/02/10 00:08:06;;;;;;;27.65;9.68;;;;;;;;;;4991836;28;20128;-75
2023/02/10 00:10:32;;;;;;;22.20;9.45;;;;;;;;;;5012750;28;20061;-65
2023/02/10 00:12:59;;;;;;;28.58;9.68;;;;;;;;;;4992789;28;20156;-66
2023/02/10 00:15:34;;;;;;;24.23;9.60;;;;;;;;;;4989266;28;20085;-71
2023/02/10 00:18:01;;;;;;;21.65;9.48;;;;;;;;;;4980397;28;20057;-78
2023/02/10 00:20:29;;;;;;;23.90;9.45;;;;;;;;;;4968112;28;20057;-68
2023/02/10 00:22:57;;;;;;;25.33;9.45;;;;;;;;;;4994166;28;20062;-69
2023/02/10 00:25:23;;;;;;;23.90;9.40;;;;;;;;;;4985805;28;20080;-79
2023/02/10 00:27:50;;;;;;;27.23;9.73;;;;;;;;;;4998460;28;20311;-74
2023/02/10 00:30:16;;;;;;;23.80;9.48;;;;;;;;;;5006136;28;20058;-69
2023/02/10 00:32:43;;;;;;;26.38;10.32;;;;;;;;;;5004321;28;20053;-77
2023/02/10 00:35:09;;;;;;;23.70;9.70;;;;;;;;;;4987805;28;20053;-68
2023/02/10 00:37:38;;;;;;;26.00;10.40;;;;;;;;;;4967720;28;20077;-72
2023/02/10 00:40:05;;;;;;;24.25;9.68;;;;;;;;;;4963867;28;20150;-74
2023/02/10 00:42:31;;;;;;;22.52;9.40;;;;;;;;;;4985967;28;20050;-67
2023/02/10 00:44:58;;;;;;;23.58;10.75;;;;;;;;;;4993232;28;20077;-72
2023/02/10 00:47:26;;;;;;;21.27;9.77;;;;;;;;;;4942096;28;20050;-71
2023/02/10 00:49:52;;;;;;;24.98;9.38;;;;;;;;;;4959919;28;20107;-70
2023/02/10 00:52:19;;;;;;;24.02;10.27;;;;;;;;;;4986074;28;20046;-75
2023/02/10 00:54:51;;;;;;;29.20;10.30;;;;;;;;;;5002083;28;20053;-77
2023/02/10 00:57:18;;;;;;;25.73;9.88;;;;;;;;;;4961147;28;20104;-71
2023/02/10 00:59:45;;;;;;;28.38;10.15;;;;;;;;;;4962185;28;20104;-72
2023/02/10 01:02:11;;;;;;;24.83;10.52;;;;;;;;;;4985893;28;20176;-73
2023/02/10 01:04:38;;;;;;;26.80;10.05;;;;;;;;;;4965134;28;20248;-76
2023/02/10 01:07:04;;;;;;;28.13;10.95;;;;;;;;;;4951179;28;20053;-67
2023/02/10 01:09:31;;;;;;;22.33;9.52;;;;;;;;;;4982767;28;20098;-68
2023/02/10 01:12:01;;;;;;;22.45;10.02;;;;;;;;;;4977068;28;20200;-71
2023/02/10 01:14:28;;;;;;;22.88;10.25;;;;;;;;;;4980370;28;20046;-67
2023/02/10 01:16:54;;;;;;;26.67;11.32;;;;;;;;;;4987774;28;20057;-70
2023/02/10 01:19:21;;;;;;;22.50;9.55;;;;;;;;;;4979744;28;20081;-71
2023/02/10 01:21:47;;;;;;;25.52;10.20;;;;;;;;;;4977204;28;20129;-75
2023/02/10 01:24:15;;;;;;;23.05;10.13;;;;;;;;;;4975332;28;20215;-79
2023/02/10 01:26:42;;;;;;;25.95;10.85;;;;;;;;;;4958773;28;20076;-78
2023/02/10 01:29:10;;;;;;;25.58;9.63;;;;;;;;;;4993667;28;20061;-71
2023/02/10 01:31:37;;;;;;;25.90;9.68;;;;;;;;;;4985554;28;20058;-69
2023/02/10 01:34:03;;;;;;;24.60;9.70;;;;;;;;;;4958671;28;20054;-75
2023/02/10 01:36:30;;;;;;;22.85;9.95;;;;;;;;;;4950180;28;20058;-70
2023/02/10 01:38:56;;;;;;;20.55;9.68;;;;;;;;;;5010766;28;20175;-80
2023/02/10 01:41:24;;;;;;;26.63;10.25;;;;;;;;;;4990463;28;20125;-73
2023/02/10 01:43:54;;;;;;;21.08;9.70;;;;;;;;;;4961354;28;20158;-77
2023/02/10 01:46:22;;;;;;;23.90;10.40;;;;;;;;;;4979396;28;20145;-68
2023/02/10 01:48:48;;;;;;;22.00;9.68;;;;;;;;;;4983161;28;20054;-74
2023/02/10 01:51:16;;;;;;;19.95;9.40;;;;;;;;;;4971812;28;20060;-76
2023/02/10 01:53:43;;;;;;;26.70;9.75;;;;;;;;;;4971563;28;20165;-73
2023/02/10 01:56:11;;;;;;;22.60;9.45;;;;;;;;;;4987793;28;20068;-71
2023/02/10 01:58:41;;;;;;;23.63;9.02;;;;;;;;;;4992765;28;20078;-66
2023/02/10 02:01:08;;;;;;;22.77;9.52;;;;;;;;;;4975157;28;20072;-70
2023/02/10 02:03:40;;;;;;;20.90;9.45;;;;;;;;;;4979013;28;20184;-77
2023/02/10 02:06:07;;;;;;;21.20;8.93;;;;;;;;;;4957166;28;20226;-73
2023/02/10 02:08:34;;;;;;;20.35;8.93;;;;;;;;;;4990078;28;20065;-76
2023/02/10 02:11:08;;;;;;;18.38;8.80;;;;;;;;;;4977142;28;20066;-68
2023/02/10 02:14:00;;;;;;;20.27;8.45;;;;;;;;;;4976575;28;20058;-72
2023/02/10 02:16:37;;;;;;;19.85;9.07;;;;;;;;;;5003377;28;20090;-70
2023/02/10 02:19:13;;;;;;;21.13;8.32;;;;;;;;;;4990897;28;20069;-71
2023/02/10 02:21:57;;;;;;;18.15;8.55;;;;;;;;;;4982188;28;20064;-68
2023/02/10 02:24:42;;;;;;;20.45;8.95;;;;;;;;;;4981215;28;20070;-76
2023/02/10 02:27:27;;;;;;;20.52;8.55;;;;;;;;;;4970151;28;20054;-67
2023/02/10 02:30:08;;;;;;;21.73;8.82;;;;;;;;;;4976740;28;21764;-72
2023/02/10 02:32:38;;;;;;;20.67;9.35;;;;;;;;;;4986855;28;20320;-70
2023/02/10 02:35:07;;;;;;;18.20;8.68;;;;;;;;;;4974517;28;20058;-68
2023/02/10 02:37:35;;;;;;;17.52;8.57;;;;;;;;;;4929121;28;20038;-72
2023/02/10 02:40:05;;;;;;;17.60;8.48;;;;;;;;;;4990449;28;20050;-68
2023/02/10 02:42:33;;;;;;;18.88;8.45;;;;;;;;;;5000252;28;20155;-73
2023/02/10 02:45:01;;;;;;;18.00;7.75;;;;;;;;;;4936843;28;20077;-68
2023/02/10 02:47:36;;;;;;;18.35;8.65;;;;;;;;;;4970209;28;20054;-70
2023/02/10 02:50:11;;;;;;;19.20;7.85;;;;;;;;;;4963935;28;20096;-68
2023/02/10 02:52:43;;;;;;;19.58;8.80;;;;;;;;;;4974895;28;20363;-71
2023/02/10 02:55:13;;;;;;;16.25;7.57;;;;;;;;;;4988050;28;20147;-77
2023/02/10 02:57:44;;;;;;;19.23;8.07;;;;;;;;;;4985056;28;20053;-72
2023/02/10 03:00:13;;;;;;;19.63;8.80;;;;;;;;;;4965087;28;20068;-68
2023/02/10 03:02:41;;;;;;;16.58;8.15;;;;;;;;;;4953537;28;20129;-71
2023/02/10 03:05:09;;;;;;;16.92;8.10;;;;;;;;;;4922124;28;20056;-70
2023/02/10 03:07:36;;;;;;;16.95;8.50;;;;;;;;;;4988623;28;20061;-73
2023/02/10 03:10:02;;;;;;;18.08;7.30;;;;;;;;;;4965201;28;20053;-77
2023/02/10 03:12:29;;;;;;;18.27;8.93;;;;;;;;;;4964224;28;20082;-66
2023/02/10 03:14:55;;;;;;;16.65;8.10;;;;;;;;;;4949661;28;20049;-73
2023/02/10 03:17:22;;;;;;;19.42;8.15;;;;;;;;;;4945663;28;20050;-73
2023/02/10 03:19:48;;;;;;;17.27;8.65;;;;;;;;;;4972591;28;20142;-80
2023/02/10 03:22:16;;;;;;;18.50;8.23;;;;;;;;;;4977772;28;20147;-72
2023/02/10 03:24:43;;;;;;;17.00;8.20;;;;;;;;;;4962343;28;20188;-73
2023/02/10 03:27:10;;;;;;;17.40;8.40;;;;;;;;;;4992720;28;20060;-71
2023/02/10 03:29:36;;;;;;;17.15;7.53;;;;;;;;;;4992233;28;20056;-67
2023/02/10 03:32:05;;;;;;;18.27;8.50;;;;;;;;;;4982722;28;20188;-73
2023/02/10 03:34:31;;;;;;;;;;;;;;;;;;4959423;28;20050;-67
2023/02/10 03:37:00;;;;;;;;;;;;;;;;;;4978264;28;19930;-71
2023/02/10 03:39:28;;;;;;;15.73;7.40;;;;;;;;;;4963796;28;19922;-69
2023/02/10 03:41:57;;;;;;;18.15;8.38;;;;;;;;;;4958797;28;20050;-76
2023/02/10 03:44:23;;;;;;;16.60;7.88;;;;;;;;;;4983784;28;20058;-72
2023/02/10 03:46:50;;;;;;;17.17;7.78;;;;;;;;;;4966718;28;20113;-78
2023/02/10 03:49:16;;;;;;;21.25;8.10;;;;;;;;;;5001254;28;20065;-69
2023/02/10 03:51:43;;;;;;;17.65;7.72;;;;;;;;;;4973402;28;20055;-69
2023/02/10 03:54:10;;;;;;;16.05;8.23;;;;;;;;;;4944674;28;20140;-68
2023/02/10 03:56:38;;;;;;;16.42;8.20;;;;;;;;;;5003075;28;20109;-64
2023/02/10 03:59:05;;;;;;;16.73;8.18;;;;;;;;;;4989667;28;20054;-69
2023/02/10 04:01:31;;;;;;;18.27;8.40;;;;;;;;;;4979948;28;20058;-74
2023/02/10 04:03:58;;;;;;;17.15;8.60;;;;;;;;;;4957770;28;20050;-75
2023/02/10 04:06:25;;;;;;;17.63;7.65;;;;;;;;;;4947271;28;20049;-73
2023/02/10 04:08:51;;;;;;;19.85;8.27;;;;;;;;;;4976714;28;20061;-70
2023/02/10 04:11:19;;;;;;;17.60;7.75;;;;;;;;;;4996490;28;20077;-73
2023/02/10 04:13:47;;;;;;;18.98;7.97;;;;;;;;;;4909766;28;20063;-77
2023/02/10 04:16:15;;;;;;;16.15;7.72;;;;;;;;;;4906375;28;20054;-71
2023/02/10 04:21:08;;;;;;;17.45;7.88;;;;;;;;;;4902458;28;20290;-68
2023/02/10 04:23:34;;;;;;;17.10;8.45;;;;;;;;;;4897092;28;20083;-66
2023/02/10 04:26:01;;;;;;;17.90;7.88;;;;;;;;;;4899966;28;20152;-67
2023/02/10 04:28:27;;;;;;;17.40;7.82;;;;;;;;;;4899744;28;20079;-69
2023/02/10 04:30:56;;;;;;;18.15;8.23;;;;;;;;;;4918780;28;20058;-73
2023/02/10 04:33:26;;;;;;;16.88;8.45;;;;;;;;;;4931400;28;20117;-71
2023/02/10 04:35:53;;;;;;;17.65;7.70;;;;;;;;;;4975528;28;20137;-76
2023/02/10 04:38:20;;;;;;;18.92;7.97;;;;;;;;;;4970603;28;20054;-69
2023/02/10 04:40:47;;;;;;;15.75;7.80;;;;;;;;;;4981177;28;20156;-73
2023/02/10 04:43:14;;;;;;;16.90;8.07;;;;;;;;;;4969076;28;20061;-68
2023/02/10 04:45:40;;;;;;;17.33;8.13;;;;;;;;;;4950847;28;20125;-73
2023/02/10 04:48:09;;;;;;;16.30;7.90;;;;;;;;;;4961635;28;20060;-71
2023/02/10 04:50:36;;;;;;;19.67;8.35;;;;;;;;;;4943107;28;20054;-71
2023/02/10 04:53:03;;;;;;;19.23;8.07;;;;;;;;;;4979410;28;20053;-67
2023/02/10 04:55:30;;;;;;;20.10;8.02;;;;;;;;;;4995980;28;20080;-68
2023/02/10 04:57:56;;;;;;;16.30;7.72;;;;;;;;;;4977671;28;20050;-66
2023/02/10 05:00:24;;;;;;;19.08;8.43;;;;;;;;;;4981570;28;20046;-71
2023/02/10 05:02:51;;;;;;;18.00;8.63;;;;;;;;;;4962301;28;20054;-67
2023/02/10 05:05:20;;;;;;;19.23;8.00;;;;;;;;;;4961122;28;20081;-70
2023/02/10 05:07:46;;;;;;;18.52;8.18;;;;;;;;;;4980249;28;20054;-70
2023/02/10 05:10:13;;;;;;;18.00;7.93;;;;;;;;;;4996959;28;20076;-72
2023/02/10 05:12:39;;;;;;;19.13;8.23;;;;;;;;;;4996124;28;20046;-71
2023/02/10 05:15:08;;;;;;;20.90;9.02;;;;;;;;;;4944382;28;20054;-74
2023/02/10 05:17:34;;;;;;;19.85;8.93;;;;;;;;;;4995984;28;20111;-67
2023/02/10 05:20:01;;;;;;;19.90;8.55;;;;;;;;;;4975453;28;20155;-71
2023/02/10 05:22:29;;;;;;;17.13;8.02;;;;;;;;;;5013394;28;20061;-71
2023/02/10 05:24:56;;;;;;;;;;;;;;;;;;4974378;28;20053;-68
2023/02/10 05:27:23;;;;;;;19.88;8.30;;;;;;;;;;4952513;28;19932;-69
2023/02/10 05:29:49;;;;;;;19.10;8.50;;;;;;;;;;4966256;28;20057;-67
2023/02/10 05:32:16;;;;;;;19.67;8.73;;;;;;;;;;4979739;28;20062;-70
2023/02/10 05:34:45;;;;;;;17.73;7.90;;;;;;;;;;4955753;28;21223;-71
2023/02/10 05:37:11;;;;;;;18.55;8.50;;;;;;;;;;4995129;28;20054;-78
2023/02/10 05:39:40;;;;;;;25.02;9.73;;;;;;;;;;4975664;28;20053;-67
2023/02/10 05:42:06;;;;;;;21.38;9.27;;;;;;;;;;4980842;28;20050;-67
2023/02/10 05:44:33;;;;;;;21.05;9.73;;;;;;;;;;4966492;28;20116;-72
2023/02/10 05:47:00;;;;;;;22.45;8.90;;;;;;;;;;4978530;28;20179;-67
2023/02/10 05:49:26;;;;;;;21.08;9.07;;;;;;;;;;4970176;28;20047;-73
2023/02/10 05:51:54;;;;;;;21.85;9.43;;;;;;;;;;4998373;28;20054;-67
2023/02/10 05:54:21;;;;;;;23.35;9.15;;;;;;;;;;4948436;28;21190;-75
2023/02/10 05:56:53;;;;;;;23.73;9.25;;;;;;;;;;4969061;28;20059;-67
2023/02/10 05:59:19;;;;;;;20.73;8.85;;;;;;;;;;4953985;28;20129;-76
2023/02/10 06:01:46;;;;;;;22.80;9.18;;;;;;;;;;4991501;28;20146;-71
2023/02/10 06:04:13;;;;;;;21.95;8.82;;;;;;;;;;4937296;28;20254;-74
2023/02/10 06:06:39;;;;;;;22.50;9.00;;;;;;;;;;4933881;28;20693;-73
2023/02/10 06:09:06;;;;;;;22.02;8.63;;;;;;;;;;4969868;28;20082;-77
2023/02/10 06:11:35;;;;;;;17.27;8.43;;;;;;;;;;4954503;28;20083;-74
2023/02/10 06:14:03;;;;;;;21.33;9.20;;;;;;;;;;4899794;28;20049;-79
2023/02/10 06:16:29;;;;;;;19.42;8.60;;;;;;;;;;4903522;28;20205;-74
2023/02/10 06:18:56;;;;;;;24.60;9.07;;;;;;;;;;4967857;28;20053;-71
2023/02/10 06:21:23;;;;;;;20.40;9.32;;;;;;;;;;4993048;28;20108;-73
2023/02/10 06:23:49;;;;;;;22.80;9.32;;;;;;;;;;4963729;28;20053;-70
2023/02/10 06:26:16;;;;;;;22.80;9.45;;;;;;;;;;4933628;28;20084;-77
2023/02/10 06:28:42;;;;;;;22.80;9.57;;;;;;;;;;4959604;28;20046;-74
2023/02/10 06:31:10;;;;;;;20.35;9.05;;;;;;;;;;4978984;28;20298;-76
2023/02/10 06:33:37;;;;;;;23.90;9.77;;;;;;;;;;4991498;28;20057;-73
2023/02/10 06:36:05;;;;;;;19.83;8.60;;;;;;;;;;4983240;28;20055;-74
2023/02/10 06:38:32;;;;;;;21.73;9.82;;;;;;;;;;4999651;28;20101;-70
2023/02/10 06:40:59;;;;;;;23.10;9.65;;;;;;;;;;4964531;28;20103;-77
2023/02/10 06:43:27;;;;;;;24.45;9.57;;;;;;;;;;4973737;28;20093;-73
2023/02/10 06:45:54;;;;;;;20.20;9.02;;;;;;;;;;4951844;28;20096;-74
2023/02/10 06:48:22;;;;;;;24.45;9.43;;;;;;;;;;4974496;28;21578;-71
2023/02/10 06:50:48;;;;;;;27.13;9.57;;;;;;;;;;4981971;28;20077;-71
2023/02/10 06:53:15;;;;;;;23.13;9.93;;;;;;;;;;4949950;28;20050;-76
2023/02/10 06:55:42;;;;;;;22.95;9.68;;;;;;;;;;4955967;28;20059;-72
2023/02/10 06:58:09;;;;;;;24.27;10.23;;;;;;;;;;4969047;28;20084;-66
2023/02/10 07:00:36;;;;;;;24.50;9.53;;;;;;;;;;4977540;28;20085;-72
2023/02/10 07:03:03;;;;;;;24.92;9.10;;;;;;;;;;4971588;28;20066;-75
2023/02/10 07:05:35;;;;;;;24.92;9.57;;;;;;;;;;4925729;28;20136;-71
2023/02/10 07:08:03;;;;;;;21.92;9.80;;;;;;;;;;4964121;28;20092;-68
2023/02/10 07:10:30;;;;;;;20.90;9.20;;;;;;;;;;4978100;28;20046;-73
2023/02/10 07:12:56;;;;;;;22.17;10.23;;;;;;;;;;4965557;28;20054;-68
2023/02/10 07:15:23;;;;;;;23.00;9.85;;;;;;;;;;4959122;28;20061;-73
2023/02/10 07:17:50;;;;;;;24.15;10.05;;;;;;;;;;4972024;28;20258;-77
2023/02/10 07:20:18;;;;;;;24.90;10.80;;;;;;;;;;4930183;28;20082;-80
2023/02/10 07:22:47;;;;;;;28.08;11.40;;;;;;;;;;4937225;28;20058;-74
2023/02/10 07:28:00;;;;;;;22.92;10.10;;;;;;;;;;5040950;27;20406;-81
2023/02/10 07:30:26;;;;;;;25.67;9.80;;;;;;;;;;4981139;28;20053;-70
2023/02/10 07:32:53;;;;;;;26.67;10.38;;;;;;;;;;4986335;28;20046;-78
2023/02/10 07:35:20;;;;;;;28.42;11.32;;;;;;;;;;4979597;28;20062;-69
2023/02/10 07:37:46;;;;;;;32.60;10.77;;;;;;;;;;4979924;28;20045;-74
2023/02/10 07:40:15;;;;;;;28.58;11.38;;;;;;;;;;4984136;28;20279;-75
2023/02/10 07:42:45;;;;;;;30.92;11.25;;;;;;;;;;4992661;28;20057;-78
2023/02/10 07:45:13;;;;;;;28.50;10.85;;;;;;;;;;5004729;28;20060;-74
2023/02/10 07:47:39;;;;;;;28.08;11.05;;;;;;;;;;4982165;28;20049;-78
2023/02/10 07:50:09;;;;;;;31.50;11.20;;;;;;;;;;4991317;28;20053;-75
2023/02/10 07:52:35;;;;;;;30.35;11.60;;;;;;;;;;5010363;28;20051;-73
2023/02/10 07:55:04;;;;;;;26.88;11.18;;;;;;;;;;4996398;28;20050;-67
2023/02/10 07:57:31;;;;;;;26.73;11.18;;;;;;;;;;4985271;28;20046;-76
2023/02/10 08:00:00;;;;;;;33.42;12.80;;;;;;;;;;4981345;28;20052;-71
2023/02/10 08:02:36;;;;;;;31.07;11.63;;;;;;;;;;4964785;28;20172;-76
2023/02/10 08:05:08;;;;;;;30.92;11.68;;;;;;;;;;4947371;28;20493;-72
2023/02/10 08:07:35;;;;;;;26.77;11.02;;;;;;;;;;4999221;28;20049;-75
2023/02/10 08:10:01;;;;;;;22.88;10.05;;;;;;;;;;4988124;28;20060;-74
2023/02/10 08:12:28;;;;;;;25.85;10.68;;;;;;;;;;4986759;28;20054;-70
2023/02/10 08:14:54;;;;;;;25.75;11.23;;;;;;;;;;4975203;28;20053;-72
2023/02/10 08:17:21;;;;;;;30.20;11.85;;;;;;;;;;4975299;28;20045;-76
2023/02/10 08:19:50;;;;;;;28.23;11.38;;;;;;;;;;4982482;28;20274;-71
2023/02/10 08:22:17;;;;;;;28.67;10.77;;;;;;;;;;4999784;28;20053;-65
2023/02/10 08:24:45;;;;;;;29.45;11.00;;;;;;;;;;4955863;28;20060;-66
2023/02/10 08:27:11;;;;;;;25.08;10.48;;;;;;;;;;4970383;28;20191;-64
2023/02/10 08:29:38;;;;;;;28.45;11.50;;;;;;;;;;4993613;28;20097;-74
2023/02/10 08:32:05;;;;;;;28.08;11.13;;;;;;;;;;4998595;28;20060;-75
2023/02/10 08:34:31;;;;;;;25.63;11.18;;;;;;;;;;4972440;28;20160;-67
2023/02/10 08:36:59;;;;;;;28.13;11.25;;;;;;;;;;4982088;28;20081;-66
2023/02/10 08:39:28;;;;;;;24.65;10.77;;;;;;;;;;4948584;28;20050;-72
2023/02/10 08:41:56;;;;;;;26.50;10.73;;;;;;;;;;4983287;28;20049;-72
2023/02/10 08:47:10;;;;;;;28.63;12.27;;;;;;;;;;5007904;27;20445;-69
2023/02/10 08:49:37;;;;;;;28.48;11.05;;;;;;;;;;5015934;28;20053;-74
2023/02/10 08:52:05;;;;;;;28.15;10.55;;;;;;;;;;5047378;28;20064;-73
2023/02/10 08:54:31;;;;;;;27.05;11.30;;;;;;;;;;4998826;28;20075;-75
2023/02/10 08:56:58;;;;;;;25.23;10.40;;;;;;;;;;4997457;28;20060;-70
2023/02/10 08:59:27;;;;;;;25.85;10.93;;;;;;;;;;4971490;28;20157;-69
2023/02/10 09:01:56;;;;;;;26.08;11.15;;;;;;;;;;4954376;28;20051;-72
2023/02/10 09:04:25;;;;;;;23.83;10.93;;;;;;;;;;4956506;28;20104;-68
2023/02/10 09:06:52;;;;;;;25.92;10.80;;;;;;;;;;4985222;28;20058;-67
2023/02/10 09:09:24;;;;;;;28.85;11.30;;;;;;;;;;4989779;28;20061;-73
2023/02/10 09:11:55;;;;;;;30.08;12.52;;;;;;;;;;5013725;28;20041;-69
2023/02/10 09:14:22;;;;;;;28.67;11.55;;;;;;;;;;5006877;28;20897;-70
2023/02/10 09:16:51;;;;;;;31.40;11.57;;;;;;;;;;5011761;28;20050;-75
2023/02/10 09:19:21;;;;;;;25.25;11.00;;;;;;;;;;4994808;28;20110;-76
2023/02/10 09:21:58;;;;;;;26.10;10.88;;;;;;;;;;4975069;28;20097;-70
2023/02/10 09:29:41;;;;;;;27.02;11.10;;;;;;;;;;5047269;27;20498;-72
2023/02/10 09:32:07;;;;;;;27.05;11.55;;;;;;;;;;5024679;28;20056;-75
2023/02/10 09:34:34;;;;;;;27.77;10.60;;;;;;;;;;4998658;28;20057;-76
2023/02/10 09:37:02;;;;;;;25.55;10.57;;;;;;;;;;4978511;28;20081;-69
2023/02/10 09:39:28;;;;;;;26.50;10.57;;;;;;;;;;4980694;28;20072;-73
2023/02/10 09:41:58;;;;;;;28.95;10.68;;;;;;;;;;4971865;28;20061;-72
2023/02/10 09:44:27;;;;;;;25.27;11.18;;;;;;;;;;4992469;28;20075;-76
2023/02/10 09:47:06;;;;;;;25.42;10.10;;;;;;;;;;4960355;28;20100;-67
2023/02/10 09:49:52;;;;;;;27.13;10.40;;;;;;;;;;5014774;28;20056;-70
2023/02/10 09:52:28;;;;;;;26.40;10.07;;;;;;;;;;4996345;28;20061;-70
2023/02/10 09:54:55;;;;;;;26.55;10.98;;;;;;;;;;4923586;28;20052;-72
2023/02/10 10:07:28;;;;;;;27.38;11.10;;;;;;;;;;4978737;27;20534;-72
2023/02/10 10:10:00;;;;;;;26.90;10.85;;;;;;;;;;4928043;28;20050;-70
2023/02/10 10:12:27;;;;;;;31.17;10.90;;;;;;;;;;4969321;28;20152;-69
2023/02/10 10:14:56;;;;;;;30.70;10.85;;;;;;;;;;4922530;28;20063;-66
2023/02/10 10:17:37;;;;;;;25.88;10.88;;;;;;;;;;4939696;28;20082;-72
2023/02/10 10:20:19;;;;;;;29.73;10.07;;;;;;;;;;4939690;28;20234;-70
2023/02/10 10:22:53;;;;;;;30.55;10.82;;;;;;;;;;4894324;28;20122;-73
2023/02/10 10:25:29;;;;;;;31.55;11.50;;;;;;;;;;4871215;28;20126;-68
2023/02/10 10:28:05;;;;;;;27.08;10.77;;;;;;;;;;4859569;29;20083;-67
2023/02/10 10:30:35;;;;;;;28.88;10.65;;;;;;;;;;4922977;28;20115;-70
2023/02/10 10:33:07;;;;;;;32.78;11.23;;;;;;;;;;4895034;28;20091;-74
2023/02/10 10:35:36;;;;;;;27.08;10.45;;;;;;;;;;4892469;28;20048;-70
2023/02/10 10:38:24;;;;;;;31.60;11.68;;;;;;;;;;4837171;28;20049;-74
2023/02/10 10:46:16;;;;;;;31.13;12.13;;;;;;;;;;5022163;27;20459;-73
2023/02/10 10:48:42;;;;;;;30.67;11.77;;;;;;;;;;4957181;28;20057;-66
2023/02/10 10:51:14;;;;;;;34.10;11.43;;;;;;;;;;5000248;28;20052;-71
2023/02/10 10:53:44;;;;;;;30.30;11.85;;;;;;;;;;5028375;28;20053;-71
2023/02/10 10:56:14;;;;;;;32.00;10.90;;;;;;;;;;4976713;28;20122;-71
2023/02/10 10:58:44;;;;;;;30.35;11.55;;;;;;;;;;4976467;28;20205;-63
2023/02/10 11:01:14;;;;;;;31.30;11.95;;;;;;;;;;4965094;28;20050;-67
2023/02/10 11:03:48;;;;;;;32.78;11.45;;;;;;;;;;4942014;28;20191;-74
2023/02/10 11:06:16;;;;;;;28.20;11.73;;;;;;;;;;4954091;28;20065;-66
2023/02/10 11:08:46;;;;;;;33.50;10.67;;;;;;;;;;5006203;28;20045;-69
2023/02/10 11:11:14;;;;;;;36.72;11.45;;;;;;;;;;4984805;28;20054;-72
2023/02/10 11:13:48;;;;;;;33.92;11.60;;;;;;;;;;4996777;28;20156;-71
2023/02/10 11:16:16;;;;;;;33.55;11.05;;;;;;;;;;4941855;28;20053;-68
2023/02/10 11:18:54;;;;;;;33.05;11.40;;;;;;;;;;4956971;28;20064;-72
2023/02/10 11:21:34;;;;;;;33.13;11.25;;;;;;;;;;4963341;28;20050;-72
2023/02/10 11:24:03;;;;;;;32.17;11.02;;;;;;;;;;4953692;28;20121;-72
2023/02/10 11:26:31;;;;;;;33.72;11.00;;;;;;;;;;4953955;28;20053;-68
2023/02/10 11:29:10;;;;;;;32.55;12.07;;;;;;;;;;4924899;28;20089;-68
2023/02/10 11:31:39;;;;;;;30.73;11.23;;;;;;;;;;4984300;28;20174;-67
2023/02/10 11:34:20;;;;;;;30.95;11.45;;;;;;;;;;4957516;28;20053;-70
2023/02/10 11:36:47;;;;;;;33.10;11.73;;;;;;;;;;4972355;28;20085;-79
2023/02/10 11:41:42;;;;;;;37.22;10.88;;;;;;;;;;4869468;28;20057;-74
2023/02/10 11:44:22;;;;;;;33.17;10.73;;;;;;;;;;4915823;28;22002;-72
2023/02/10 11:46:57;;;;;;;28.58;10.85;;;;;;;;;;4949211;28;20085;-65
2023/02/10 11:49:30;;;;;;;35.22;10.60;;;;;;;;;;4905909;28;20093;-77
2023/02/10 11:52:00;;;;;;;36.65;12.60;;;;;;;;;;4971101;28;20062;-73
2023/02/10 11:54:35;;;;;;;33.70;11.57;;;;;;;;;;4909011;28;20131;-76
2023/02/10 12:05:29;;;;;;;32.47;11.57;;;;;;;;;;5004595;27;20420;-79
2023/02/10 12:08:01;;;;;;;37.08;12.48;;;;;;;;;;4960360;28;20050;-74
2023/02/10 12:10:35;;;;;;;32.47;10.70;;;;;;;;;;4996540;28;20049;-75
2023/02/10 12:13:11;;;;;;;32.05;10.57;;;;;;;;;;4922616;28;20055;-75
2023/02/10 12:31:37;;;;;;;24.42;8.02;;;;;;;;;;5011208;27;20577;-69
2023/02/10 12:39:55;;;;;;;32.72;10.05;;;;;;;;;;4973494;28;20499;-74
2023/02/10 12:42:47;;;;;;;31.08;9.68;;;;;;;;;;4911033;28;20078;-80
2023/02/10 13:00:43;;;;;;;;;;;;;;;;;;;;;
2023/02/10 13:14:42;;;;;;;28.60;9.95;;;;;;;;;;5073671;27;20427;-78
2023/02/10 13:25:44;;;;;;;29.15;9.07;;;;;;;;;;4930075;28;1626805;-80
2023/02/10 13:28:17;;;;;;;29.13;9.55;;;;;;;;;;4926066;28;20198;-71
2023/02/10 13:30:53;;;;;;;31.60;10.50;;;;;;;;;;4908813;28;20334;-75
2023/02/10 13:43:47;;;;;;;26.98;9.57;;;;;;;;;;4917059;28;20046;-72
2023/02/10 13:46:21;;;;;;;27.50;9.20;;;;;;;;;;4918229;28;20447;-71
2023/02/10 14:05:23;;;;;;;30.00;10.35;;;;;;;;;;5011086;28;20151;-74
2023/02/10 14:07:57;;;;;;;29.70;10.40;;;;;;;;;;4944028;28;20049;-74
2023/02/10 14:10:38;;;;;;;33.17;10.50;;;;;;;;;;4980270;28;20041;-78
2023/02/10 14:13:20;;;;;;;38.78;11.98;;;;;;;;;;5016656;28;20135;-78
2023/02/10 14:16:08;;;;;;;36.63;10.27;;;;;;;;;;4998804;28;20053;-71
2023/02/10 14:18:45;;;;;;;36.83;10.97;;;;;;;;;;4965102;28;20137;-73
2023/02/10 14:26:46;;;;;;;38.88;12.20;;;;;;;;;;4941894;28;20060;-68
2023/02/10 14:29:17;;;;;;;38.97;12.52;;;;;;;;;;4929803;28;20053;-78
2023/02/10 14:37:20;;;;;;;49.17;14.43;;;;;;;;;;5059846;27;20400;-77
2023/02/10 14:40:03;;;;;;;42.13;14.88;;;;;;;;;;4973477;28;20061;-81
2023/02/10 14:42:32;;;;;;;44.90;16.00;;;;;;;;;;4981197;28;20053;-75
2023/02/10 14:45:01;;;;;;;47.95;16.33;;;;;;;;;;4979468;28;20129;-73
2023/02/10 14:47:30;;;;;;;40.83;16.77;;;;;;;;;;4980144;28;20053;-74
2023/02/10 14:50:25;;;;;;;50.83;16.63;;;;;;;;;;4990850;28;20131;-77
2023/02/10 14:53:07;;;;;;;;;;;;;;;;;;;;;
2023/02/10 14:56:13;;;;;;;44.35;16.63;;;;;;;;;;4932192;28;20081;-71
2023/02/10 14:58:45;;;;;;;51.92;17.20;;;;;;;;;;4937710;28;20137;-75
2023/02/10 15:01:23;;;;;;;43.80;16.98;;;;;;;;;;4940015;28;20065;-70
2023/02/10 15:10:05;;;;;;;54.88;18.73;;;;;;;;;;4937266;27;20823;-75
2023/02/10 15:12:40;;;;;;;48.72;18.45;;;;;;;;;;4924095;28;20142;-70
2023/02/10 15:15:33;;;;;;;;;;;;;;;;;;;;;
2023/02/10 15:23:15;;;;;;;49.67;18.95;;;;;;;;;;5037765;27;20458;-74
2023/02/10 15:25:45;;;;;;;51.53;19.92;;;;;;;;;;4998961;28;20064;-75
2023/02/10 15:33:53;;;;;;;48.88;18.48;;;;;;;;;;5091783;27;20253;-79
2023/02/10 15:36:35;;;;;;;54.90;18.75;;;;;;;;;;5013685;28;20048;-77
2023/02/10 15:39:03;;;;;;;40.83;17.13;;;;;;;;;;4962070;28;20061;-73
2023/02/10 15:41:36;;;;;;;48.42;19.38;;;;;;;;;;5016594;28;20048;-76
2023/02/10 15:44:06;;;;;;;41.70;17.45;;;;;;;;;;4990845;28;20053;-74
2023/02/10 15:46:33;;;;;;;46.50;18.07;;;;;;;;;;4967017;28;20076;-70
2023/02/10 15:54:26;;;;;;;41.15;17.15;;;;;;;;;;5012444;27;20553;-79
2023/02/10 15:57:17;;;;;;;45.05;17.48;;;;;;;;;;5006994;28;20050;-77
2023/02/10 16:03:00;;;;;;;41.80;16.75;;;;;;;;;;5046198;27;20562;-72
2023/02/10 16:05:33;;;;;;;52.33;18.48;;;;;;;;;;4971678;28;20097;-79
2023/02/10 16:08:04;;;;;;;47.30;17.23;;;;;;;;;;4984195;28;20060;-77
2023/02/10 16:16:08;;;;;;;40.92;17.17;;;;;;;;;;5060643;27;20513;-71
2023/02/10 16:18:55;;;;;;;41.63;16.02;;;;;;;;;;4954426;28;20081;-67
2023/02/10 16:29:11;;;;;;;40.42;15.43;;;;;;;;;;4947671;28;20435;-73
2023/02/10 16:42:13;;;;;;;37.80;15.95;;;;;;;;;;4995517;27;20481;-84
2023/02/10 16:44:50;;;;;;;41.45;16.38;;;;;;;;;;4914534;28;20054;-79
2023/02/10 16:47:18;;;;;;;47.20;17.27;;;;;;;;;;4943737;28;20081;-79
2023/02/10 16:55:04;;;;;;;45.13;16.48;;;;;;;;;;4977860;27;20449;-78
2023/02/10 16:57:41;;;;;;;48.25;18.38;;;;;;;;;;4890939;28;20050;-71
2023/02/10 17:00:12;;;;;;;44.60;17.42;;;;;;;;;;4883331;28;20062;-78
2023/02/10 17:02:44;;;;;;;42.95;17.33;;;;;;;;;;4879810;28;20063;-78
2023/02/10 17:05:27;;;;;;;45.42;18.13;;;;;;;;;;4876071;29;20199;-73
2023/02/10 17:16:24;;;;;;;44.50;17.58;;;;;;;;;;5041823;27;20434;-79
2023/02/10 17:24:13;;;;;;;52.90;18.40;;;;;;;;;;4938678;27;20457;-72
2023/02/10 17:34:49;;;;;;;53.97;18.45;;;;;;;;;;5037733;28;20599;-73
2023/02/10 17:37:34;;;;;;;51.88;18.90;;;;;;;;;;4854645;29;20054;-77
2023/02/10 17:43:17;;;;;;;44.53;17.60;;;;;;;;;;4949732;28;20511;-67
2023/02/10 17:46:05;;;;;;;43.53;18.23;;;;;;;;;;4876757;28;20265;-70
2023/02/10 17:48:34;;;;;;;45.38;17.58;;;;;;;;;;4889215;28;20054;-78
2023/02/10 17:51:09;;;;;;;44.72;18.25;;;;;;;;;;4869584;29;20067;-76
2023/02/10 17:56:09;;;;;;;42.05;17.10;;;;;;;;;;4881761;28;20090;-76
2023/02/10 17:58:37;;;;;;;40.78;17.45;;;;;;;;;;4890771;28;20051;-75
2023/02/10 18:01:06;;;;;;;45.67;18.35;;;;;;;;;;4864565;29;20173;-74
2023/02/10 18:03:35;;;;;;;40.75;17.08;;;;;;;;;;4887577;28;20146;-72
2023/02/10 18:06:02;;;;;;;43.33;16.50;;;;;;;;;;4875706;28;20051;-79
2023/02/10 18:08:33;;;;;;;43.08;17.10;;;;;;;;;;4902408;28;20048;-73
2023/02/10 18:10:59;;;;;;;;;;;;;;;;;;4855317;28;20080;-70
2023/02/10 18:13:32;;;;;;;38.05;16.33;;;;;;;;;;4842550;29;19971;-77
2023/02/10 18:21:16;;;;;;;45.42;17.90;;;;;;;;;;5054759;27;20512;-71
2023/02/10 18:23:43;;;;;;;43.90;16.77;;;;;;;;;;5009537;28;20052;-75